sensor_id;sensor_type;location;lat;lon;timestamp;P1;durP1;ratioP1;P2;durP2;ratioP2
56114;SDS011;41988;53.020;6.576;2023-03-18T00:02:09;12.90;;;6.60;;
56114;SDS011;41988;53.020;6.576;2023-03-18T00:04:54;10.32;;;5.47;;
56114;SDS011;41988;53.020;6.576;2023-03-18T00:07:39;11.25;;;6.07;;
56114;SDS011;41988;53.020;6.576;2023-03-18T00:10:24;11.40;;;6.15;;
56114;SDS011;41988;53.020;6.576;2023-03-18T00:13:08;10.45;;;6.70;;
56114;SDS011;41988;53.020;6.576;2023-03-18T00:15:53;15.38;;;7.25;;
56114;SDS011;41988;53.020;6.576;2023-03-18T00:18:38;11.10;;;5.95;;
56114;SDS011;41988;53.020;6.576;2023-03-18T00:21:24;12.50;;;6.00;;
56114;SDS011;41988;53.020;6.576;2023-03-18T00:24:09;12.20;;;6.28;;
56114;SDS011;41988;53.020;6.576;2023-03-18T00:26:54;11.98;;;6.57;;
56114;SDS011;41988;53.020;6.576;2023-03-18T00:29:39;12.50;;;6.97;;
56114;SDS011;41988;53.020;6.576;2023-03-18T00:32:24;10.00;;;6.43;;
56114;SDS011;41988;53.020;6.576;2023-03-18T00:35:10;15.27;;;6.70;;
56114;SDS011;41988;53.020;6.576;2023-03-18T00:37:55;10.85;;;7.13;;
56114;SDS011;41988;53.020;6.576;2023-03-18T00:40:41;12.68;;;6.72;;
56114;SDS011;41988;53.020;6.576;2023-03-18T00:43:26;12.88;;;6.68;;
56114;SDS011;41988;53.020;6.576;2023-03-18T00:46:13;13.80;;;7.72;;
56114;SDS011;41988;53.020;6.576;2023-03-18T00:49:03;12.20;;;7.22;;
56114;SDS011;41988;53.020;6.576;2023-03-18T00:51:49;14.05;;;7.07;;
56114;SDS011;41988;53.020;6.576;2023-03-18T00:54:34;12.00;;;7.97;;
56114;SDS011;41988;53.020;6.576;2023-03-18T00:57:19;14.02;;;8.15;;
56114;SDS011;41988;53.020;6.576;2023-03-18T01:00:04;12.25;;;8.25;;
56114;SDS011;41988;53.020;6.576;2023-03-18T01:02:49;14.02;;;8.43;;
56114;SDS011;41988;53.020;6.576;2023-03-18T01:05:34;15.45;;;8.55;;
56114;SDS011;41988;53.020;6.576;2023-03-18T01:08:19;19.30;;;9.30;;
56114;SDS011;41988;53.020;6.576;2023-03-18T01:11:04;15.52;;;8.77;;
56114;SDS011;41988;53.020;6.576;2023-03-18T01:13:50;21.27;;;9.60;;
56114;SDS011;41988;53.020;6.576;2023-03-18T01:16:35;14.40;;;10.27;;
56114;SDS011;41988;53.020;6.576;2023-03-18T01:19:20;16.42;;;10.35;;
56114;SDS011;41988;53.020;6.576;2023-03-18T01:22:05;20.58;;;11.93;;
56114;SDS011;41988;53.020;6.576;2023-03-18T01:24:50;24.05;;;12.85;;
56114;SDS011;41988;53.020;6.576;2023-03-18T01:27:35;19.73;;;12.50;;
56114;SDS011;41988;53.020;6.576;2023-03-18T01:30:20;19.40;;;11.85;;
56114;SDS011;41988;53.020;6.576;2023-03-18T01:33:06;19.20;;;11.07;;
56114;SDS011;41988;53.020;6.576;2023-03-18T01:35:55;18.85;;;12.75;;
56114;SDS011;41988;53.020;6.576;2023-03-18T01:38:42;23.70;;;13.27;;
56114;SDS011;41988;53.020;6.576;2023-03-18T01:41:27;20.77;;;12.38;;
56114;SDS011;41988;53.020;6.576;2023-03-18T01:44:18;20.92;;;14.25;;
56114;SDS011;41988;53.020;6.576;2023-03-18T01:47:04;21.83;;;13.15;;
56114;SDS011;41988;53.020;6.576;2023-03-18T01:49:50;20.65;;;13.25;;
56114;SDS011;41988;53.020;6.576;2023-03-18T01:52:35;25.25;;;14.15;;
56114;SDS011;41988;53.020;6.576;2023-03-18T01:55:21;21.10;;;13.88;;
56114;SDS011;41988;53.020;6.576;2023-03-18T01:58:12;21.10;;;14.95;;
56114;SDS011;41988;53.020;6.576;2023-03-18T02:01:05;21.48;;;15.18;;
56114;SDS011;41988;53.020;6.576;2023-03-18T02:03:54;22.40;;;15.07;;
56114;SDS011;41988;53.020;6.576;2023-03-18T02:06:39;25.42;;;15.18;;
56114;SDS011;41988;53.020;6.576;2023-03-18T02:09:25;22.67;;;15.13;;
56114;SDS011;41988;53.020;6.576;2023-03-18T02:12:10;22.70;;;16.33;;
56114;SDS011;41988;53.020;6.576;2023-03-18T02:14:56;21.75;;;15.65;;
56114;SDS011;41988;53.020;6.576;2023-03-18T02:17:43;23.42;;;16.15;;
56114;SDS011;41988;53.020;6.576;2023-03-18T02:23:27;25.98;;;15.95;;
56114;SDS011;41988;53.020;6.576;2023-03-18T02:28:59;26.77;;;16.13;;
56114;SDS011;41988;53.020;6.576;2023-03-18T02:31:47;25.42;;;16.80;;
56114;SDS011;41988;53.020;6.576;2023-03-18T02:34:33;25.00;;;16.50;;
56114;SDS011;41988;53.020;6.576;2023-03-18T02:37:20;29.02;;;17.13;;
56114;SDS011;41988;53.020;6.576;2023-03-18T02:40:15;25.63;;;16.88;;
56114;SDS011;41988;53.020;6.576;2023-03-18T02:43:33;30.30;;;17.58;;
56114;SDS011;41988;53.020;6.576;2023-03-18T02:49:30;27.13;;;17.25;;
56114;SDS011;41988;53.020;6.576;2023-03-18T02:52:15;26.50;;;16.88;;
56114;SDS011;41988;53.020;6.576;2023-03-18T02:54:59;25.92;;;17.52;;
56114;SDS011;41988;53.020;6.576;2023-03-18T02:57:44;30.42;;;19.23;;
56114;SDS011;41988;53.020;6.576;2023-03-18T03:00:29;29.23;;;19.17;;
56114;SDS011;41988;53.020;6.576;2023-03-18T03:03:14;26.50;;;18.50;;
56114;SDS011;41988;53.020;6.576;2023-03-18T03:05:58;28.10;;;19.30;;
56114;SDS011;41988;53.020;6.576;2023-03-18T03:08:44;30.50;;;18.80;;
56114;SDS011;41988;53.020;6.576;2023-03-18T03:11:29;30.00;;;20.05;;
56114;SDS011;41988;53.020;6.576;2023-03-18T03:14:14;29.50;;;19.70;;
56114;SDS011;41988;53.020;6.576;2023-03-18T03:16:59;29.42;;;19.38;;
56114;SDS011;41988;53.020;6.576;2023-03-18T03:19:44;31.63;;;19.73;;
56114;SDS011;41988;53.020;6.576;2023-03-18T03:22:29;29.08;;;18.65;;
56114;SDS011;41988;53.020;6.576;2023-03-18T03:25:13;28.58;;;19.48;;
56114;SDS011;41988;53.020;6.576;2023-03-18T03:27:58;31.30;;;19.50;;
56114;SDS011;41988;53.020;6.576;2023-03-18T03:30:43;29.05;;;19.48;;
56114;SDS011;41988;53.020;6.576;2023-03-18T03:33:27;30.52;;;20.50;;
56114;SDS011;41988;53.020;6.576;2023-03-18T03:36:13;32.70;;;19.83;;
56114;SDS011;41988;53.020;6.576;2023-03-18T03:38:59;29.92;;;20.20;;
56114;SDS011;41988;53.020;6.576;2023-03-18T03:41:45;36.80;;;21.70;;
56114;SDS011;41988;53.020;6.576;2023-03-18T03:44:29;32.42;;;20.58;;
56114;SDS011;41988;53.020;6.576;2023-03-18T03:47:14;36.63;;;22.02;;
56114;SDS011;41988;53.020;6.576;2023-03-18T03:49:58;35.88;;;20.60;;
56114;SDS011;41988;53.020;6.576;2023-03-18T03:52:44;37.05;;;21.25;;
56114;SDS011;41988;53.020;6.576;2023-03-18T03:55:29;32.47;;;20.67;;
56114;SDS011;41988;53.020;6.576;2023-03-18T03:58:14;30.60;;;20.13;;
56114;SDS011;41988;53.020;6.576;2023-03-18T04:00:58;36.25;;;22.00;;
56114;SDS011;41988;53.020;6.576;2023-03-18T04:03:43;36.10;;;20.90;;
56114;SDS011;41988;53.020;6.576;2023-03-18T04:06:28;32.88;;;21.58;;
56114;SDS011;41988;53.020;6.576;2023-03-18T04:09:13;34.13;;;22.50;;
56114;SDS011;41988;53.020;6.576;2023-03-18T04:11:59;34.25;;;22.20;;
56114;SDS011;41988;53.020;6.576;2023-03-18T04:14:45;35.25;;;21.88;;
56114;SDS011;41988;53.020;6.576;2023-03-18T04:17:30;35.03;;;21.02;;
56114;SDS011;41988;53.020;6.576;2023-03-18T04:20:14;32.90;;;21.67;;
56114;SDS011;41988;53.020;6.576;2023-03-18T04:22:59;31.15;;;21.73;;
56114;SDS011;41988;53.020;6.576;2023-03-18T04:25:45;34.72;;;21.92;;
56114;SDS011;41988;53.020;6.576;2023-03-18T04:28:30;35.95;;;22.08;;
56114;SDS011;41988;53.020;6.576;2023-03-18T04:31:15;43.78;;;23.95;;
56114;SDS011;41988;53.020;6.576;2023-03-18T04:33:59;38.75;;;24.08;;
56114;SDS011;41988;53.020;6.576;2023-03-18T04:36:44;32.38;;;22.88;;
56114;SDS011;41988;53.020;6.576;2023-03-18T04:39:29;37.63;;;23.13;;
56114;SDS011;41988;53.020;6.576;2023-03-18T04:42:14;41.13;;;24.73;;
56114;SDS011;41988;53.020;6.576;2023-03-18T04:44:59;36.92;;;23.63;;
56114;SDS011;41988;53.020;6.576;2023-03-18T04:47:44;32.88;;;22.77;;
56114;SDS011;41988;53.020;6.576;2023-03-18T04:50:29;36.47;;;23.33;;
56114;SDS011;41988;53.020;6.576;2023-03-18T04:53:13;37.88;;;23.25;;
56114;SDS011;41988;53.020;6.576;2023-03-18T04:55:59;41.53;;;22.35;;
56114;SDS011;41988;53.020;6.576;2023-03-18T04:58:44;42.95;;;25.25;;
56114;SDS011;41988;53.020;6.576;2023-03-18T05:01:29;37.85;;;24.85;;
56114;SDS011;41988;53.020;6.576;2023-03-18T05:04:13;35.63;;;21.83;;
56114;SDS011;41988;53.020;6.576;2023-03-18T05:06:59;39.83;;;22.10;;
56114;SDS011;41988;53.020;6.576;2023-03-18T05:09:44;43.90;;;24.33;;
56114;SDS011;41988;53.020;6.576;2023-03-18T05:12:29;37.08;;;22.60;;
56114;SDS011;41988;53.020;6.576;2023-03-18T05:15:14;34.05;;;23.02;;
56114;SDS011;41988;53.020;6.576;2023-03-18T05:17:59;35.97;;;21.75;;
56114;SDS011;41988;53.020;6.576;2023-03-18T05:20:44;35.30;;;22.33;;
56114;SDS011;41988;53.020;6.576;2023-03-18T05:23:29;35.17;;;22.42;;
56114;SDS011;41988;53.020;6.576;2023-03-18T05:26:14;40.85;;;23.63;;
56114;SDS011;41988;53.020;6.576;2023-03-18T05:28:59;38.80;;;23.70;;
56114;SDS011;41988;53.020;6.576;2023-03-18T05:31:44;40.70;;;22.90;;
56114;SDS011;41988;53.020;6.576;2023-03-18T05:34:28;40.03;;;23.67;;
56114;SDS011;41988;53.020;6.576;2023-03-18T05:37:14;36.42;;;23.63;;
56114;SDS011;41988;53.020;6.576;2023-03-18T05:39:59;40.08;;;22.63;;
56114;SDS011;41988;53.020;6.576;2023-03-18T05:42:43;37.00;;;25.00;;
56114;SDS011;41988;53.020;6.576;2023-03-18T05:45:28;38.67;;;24.27;;
56114;SDS011;41988;53.020;6.576;2023-03-18T05:48:13;38.20;;;24.73;;
56114;SDS011;41988;53.020;6.576;2023-03-18T05:50:58;35.35;;;23.52;;
56114;SDS011;41988;53.020;6.576;2023-03-18T05:53:42;39.45;;;23.83;;
56114;SDS011;41988;53.020;6.576;2023-03-18T05:56:27;36.28;;;24.38;;
56114;SDS011;41988;53.020;6.576;2023-03-18T05:59:13;45.00;;;23.80;;
56114;SDS011;41988;53.020;6.576;2023-03-18T06:01:57;41.45;;;25.00;;
56114;SDS011;41988;53.020;6.576;2023-03-18T06:04:43;38.83;;;24.05;;
56114;SDS011;41988;53.020;6.576;2023-03-18T06:07:28;37.03;;;24.15;;
56114;SDS011;41988;53.020;6.576;2023-03-18T06:10:13;39.30;;;24.02;;
56114;SDS011;41988;53.020;6.576;2023-03-18T06:12:58;37.40;;;23.63;;
56114;SDS011;41988;53.020;6.576;2023-03-18T06:15:42;40.22;;;25.00;;
56114;SDS011;41988;53.020;6.576;2023-03-18T06:18:27;36.97;;;24.05;;
56114;SDS011;41988;53.020;6.576;2023-03-18T06:21:11;37.63;;;24.80;;
56114;SDS011;41988;53.020;6.576;2023-03-18T06:23:56;36.88;;;23.38;;
56114;SDS011;41988;53.020;6.576;2023-03-18T06:26:41;33.63;;;23.60;;
56114;SDS011;41988;53.020;6.576;2023-03-18T06:29:26;40.50;;;25.90;;
56114;SDS011;41988;53.020;6.576;2023-03-18T06:32:10;39.92;;;26.55;;
56114;SDS011;41988;53.020;6.576;2023-03-18T06:34:55;38.92;;;25.50;;
56114;SDS011;41988;53.020;6.576;2023-03-18T06:37:39;39.03;;;25.80;;
56114;SDS011;41988;53.020;6.576;2023-03-18T06:40:25;40.13;;;25.40;;
56114;SDS011;41988;53.020;6.576;2023-03-18T06:43:10;38.42;;;25.52;;
56114;SDS011;41988;53.020;6.576;2023-03-18T06:45:55;41.08;;;25.75;;
56114;SDS011;41988;53.020;6.576;2023-03-18T06:48:40;44.63;;;27.85;;
56114;SDS011;41988;53.020;6.576;2023-03-18T06:51:25;41.15;;;25.98;;
56114;SDS011;41988;53.020;6.576;2023-03-18T06:54:10;42.75;;;26.55;;
56114;SDS011;41988;53.020;6.576;2023-03-18T06:56:55;37.65;;;26.67;;
56114;SDS011;41988;53.020;6.576;2023-03-18T06:59:39;43.78;;;28.42;;
56114;SDS011;41988;53.020;6.576;2023-03-18T07:02:24;41.20;;;26.98;;
56114;SDS011;41988;53.020;6.576;2023-03-18T07:05:10;39.78;;;27.05;;
56114;SDS011;41988;53.020;6.576;2023-03-18T07:07:55;46.92;;;27.90;;
56114;SDS011;41988;53.020;6.576;2023-03-18T07:10:40;36.95;;;25.83;;
56114;SDS011;41988;53.020;6.576;2023-03-18T07:13:24;38.53;;;27.02;;
56114;SDS011;41988;53.020;6.576;2023-03-18T07:16:09;35.03;;;25.63;;
56114;SDS011;41988;53.020;6.576;2023-03-18T07:18:53;38.13;;;25.10;;
56114;SDS011;41988;53.020;6.576;2023-03-18T07:21:40;33.08;;;24.85;;
56114;SDS011;41988;53.020;6.576;2023-03-18T07:24:26;45.05;;;26.02;;
56114;SDS011;41988;53.020;6.576;2023-03-18T07:27:11;32.92;;;25.55;;
56114;SDS011;41988;53.020;6.576;2023-03-18T07:29:59;32.50;;;24.05;;
56114;SDS011;41988;53.020;6.576;2023-03-18T07:32:44;37.47;;;23.88;;
56114;SDS011;41988;53.020;6.576;2023-03-18T07:35:28;34.13;;;22.63;;
56114;SDS011;41988;53.020;6.576;2023-03-18T07:38:16;31.38;;;23.52;;
56114;SDS011;41988;53.020;6.576;2023-03-18T07:41:01;33.88;;;22.33;;
56114;SDS011;41988;53.020;6.576;2023-03-18T07:43:46;31.98;;;23.15;;
56114;SDS011;41988;53.020;6.576;2023-03-18T07:46:31;30.67;;;21.65;;
56114;SDS011;41988;53.020;6.576;2023-03-18T07:49:15;30.60;;;21.40;;
56114;SDS011;41988;53.020;6.576;2023-03-18T07:52:00;30.98;;;21.85;;
56114;SDS011;41988;53.020;6.576;2023-03-18T07:54:44;31.13;;;21.00;;
56114;SDS011;41988;53.020;6.576;2023-03-18T07:57:30;32.97;;;21.13;;
56114;SDS011;41988;53.020;6.576;2023-03-18T08:00:15;27.02;;;19.92;;
56114;SDS011;41988;53.020;6.576;2023-03-18T08:03:00;29.70;;;20.85;;
56114;SDS011;41988;53.020;6.576;2023-03-18T08:05:44;29.88;;;20.33;;
56114;SDS011;41988;53.020;6.576;2023-03-18T08:08:29;29.08;;;21.33;;
56114;SDS011;41988;53.020;6.576;2023-03-18T08:11:14;29.40;;;21.30;;
56114;SDS011;41988;53.020;6.576;2023-03-18T08:13:59;31.73;;;19.90;;
56114;SDS011;41988;53.020;6.576;2023-03-18T08:16:44;30.88;;;20.23;;
56114;SDS011;41988;53.020;6.576;2023-03-18T08:19:29;30.83;;;20.80;;
56114;SDS011;41988;53.020;6.576;2023-03-18T08:22:14;30.55;;;21.23;;
56114;SDS011;41988;53.020;6.576;2023-03-18T08:24:58;28.17;;;20.98;;
56114;SDS011;41988;53.020;6.576;2023-03-18T08:27:43;27.10;;;20.88;;
56114;SDS011;41988;53.020;6.576;2023-03-18T08:30:28;38.38;;;20.88;;
56114;SDS011;41988;53.020;6.576;2023-03-18T08:33:13;30.52;;;20.23;;
56114;SDS011;41988;53.020;6.576;2023-03-18T08:35:58;34.70;;;20.88;;
56114;SDS011;41988;53.020;6.576;2023-03-18T08:38:43;30.75;;;19.77;;
56114;SDS011;41988;53.020;6.576;2023-03-18T08:41:28;30.20;;;21.85;;
56114;SDS011;41988;53.020;6.576;2023-03-18T08:44:12;28.90;;;19.92;;
56114;SDS011;41988;53.020;6.576;2023-03-18T08:46:58;29.40;;;20.58;;
56114;SDS011;41988;53.020;6.576;2023-03-18T08:49:42;32.25;;;21.08;;
56114;SDS011;41988;53.020;6.576;2023-03-18T08:52:27;28.25;;;19.65;;
56114;SDS011;41988;53.020;6.576;2023-03-18T08:55:12;31.83;;;20.60;;
56114;SDS011;41988;53.020;6.576;2023-03-18T08:57:57;32.40;;;20.90;;
56114;SDS011;41988;53.020;6.576;2023-03-18T09:00:42;28.38;;;21.10;;
56114;SDS011;41988;53.020;6.576;2023-03-18T09:03:27;30.10;;;20.10;;
56114;SDS011;41988;53.020;6.576;2023-03-18T09:06:12;33.20;;;22.73;;
56114;SDS011;41988;53.020;6.576;2023-03-18T09:08:57;28.67;;;22.08;;
56114;SDS011;41988;53.020;6.576;2023-03-18T09:11:42;31.75;;;22.10;;
56114;SDS011;41988;53.020;6.576;2023-03-18T09:14:28;32.50;;;21.80;;
56114;SDS011;41988;53.020;6.576;2023-03-18T09:17:13;30.25;;;23.08;;
56114;SDS011;41988;53.020;6.576;2023-03-18T09:19:58;31.40;;;22.88;;
56114;SDS011;41988;53.020;6.576;2023-03-18T09:22:43;30.90;;;23.60;;
56114;SDS011;41988;53.020;6.576;2023-03-18T09:25:28;31.73;;;22.55;;
56114;SDS011;41988;53.020;6.576;2023-03-18T09:28:13;31.67;;;21.50;;
56114;SDS011;41988;53.020;6.576;2023-03-18T09:30:58;29.25;;;20.95;;
56114;SDS011;41988;53.020;6.576;2023-03-18T09:33:42;29.50;;;20.92;;
56114;SDS011;41988;53.020;6.576;2023-03-18T09:36:27;33.08;;;21.92;;
56114;SDS011;41988;53.020;6.576;2023-03-18T09:39:11;28.75;;;20.15;;
56114;SDS011;41988;53.020;6.576;2023-03-18T09:44:48;24.40;;;19.83;;
56114;SDS011;41988;53.020;6.576;2023-03-18T09:47:43;32.17;;;20.48;;
56114;SDS011;41988;53.020;6.576;2023-03-18T09:50:46;26.85;;;20.50;;
56114;SDS011;41988;53.020;6.576;2023-03-18T09:53:54;31.85;;;22.50;;
56114;SDS011;41988;53.020;6.576;2023-03-18T09:56:42;29.67;;;19.60;;
56114;SDS011;41988;53.020;6.576;2023-03-18T10:02:22;29.20;;;21.10;;
56114;SDS011;41988;53.020;6.576;2023-03-18T10:05:23;28.88;;;20.45;;
56114;SDS011;41988;53.020;6.576;2023-03-18T10:08:18;27.00;;;20.05;;
56114;SDS011;41988;53.020;6.576;2023-03-18T10:11:19;30.58;;;21.33;;
56114;SDS011;41988;53.020;6.576;2023-03-18T10:14:16;27.15;;;21.13;;
56114;SDS011;41988;53.020;6.576;2023-03-18T10:19:52;29.00;;;21.70;;
56114;SDS011;41988;53.020;6.576;2023-03-18T10:25:39;27.40;;;20.88;;
56114;SDS011;41988;53.020;6.576;2023-03-18T10:34:28;31.23;;;21.67;;
56114;SDS011;41988;53.020;6.576;2023-03-18T10:37:59;30.42;;;21.25;;
56114;SDS011;41988;53.020;6.576;2023-03-18T10:40:40;24.50;;;18.67;;
56114;SDS011;41988;53.020;6.576;2023-03-18T10:43:26;30.23;;;20.30;;
56114;SDS011;41988;53.020;6.576;2023-03-18T10:46:13;27.88;;;20.30;;
56114;SDS011;41988;53.020;6.576;2023-03-18T10:49:00;23.88;;;17.80;;
56114;SDS011;41988;53.020;6.576;2023-03-18T10:51:54;29.90;;;17.83;;
56114;SDS011;41988;53.020;6.576;2023-03-18T10:54:48;24.98;;;17.65;;
56114;SDS011;41988;53.020;6.576;2023-03-18T10:57:35;25.77;;;17.85;;
56114;SDS011;41988;53.020;6.576;2023-03-18T11:00:30;25.63;;;17.98;;
56114;SDS011;41988;53.020;6.576;2023-03-18T11:03:22;21.90;;;16.83;;
56114;SDS011;41988;53.020;6.576;2023-03-18T11:06:59;28.50;;;20.48;;
56114;SDS011;41988;53.020;6.576;2023-03-18T11:09:29;24.60;;;18.20;;
56114;SDS011;41988;53.020;6.576;2023-03-18T11:12:26;29.73;;;20.30;;
56114;SDS011;41988;53.020;6.576;2023-03-18T11:15:11;29.13;;;19.10;;
56114;SDS011;41988;53.020;6.576;2023-03-18T11:17:57;25.88;;;19.15;;
56114;SDS011;41988;53.020;6.576;2023-03-18T11:20:45;24.67;;;18.23;;
56114;SDS011;41988;53.020;6.576;2023-03-18T11:23:33;29.88;;;19.48;;
56114;SDS011;41988;53.020;6.576;2023-03-18T11:26:55;23.27;;;17.88;;
56114;SDS011;41988;53.020;6.576;2023-03-18T11:29:44;26.23;;;18.33;;
56114;SDS011;41988;53.020;6.576;2023-03-18T11:35:44;21.95;;;15.52;;
56114;SDS011;41988;53.020;6.576;2023-03-18T11:38:35;19.95;;;13.98;;
56114;SDS011;41988;53.020;6.576;2023-03-18T11:41:23;22.27;;;14.50;;
56114;SDS011;41988;53.020;6.576;2023-03-18T11:44:15;16.67;;;11.95;;
56114;SDS011;41988;53.020;6.576;2023-03-18T11:47:05;16.05;;;11.73;;
56114;SDS011;41988;53.020;6.576;2023-03-18T11:50:08;15.80;;;12.45;;
56114;SDS011;41988;53.020;6.576;2023-03-18T11:55:50;16.30;;;12.18;;
56114;SDS011;41988;53.020;6.576;2023-03-18T12:05:25;14.15;;;10.40;;
56114;SDS011;41988;53.020;6.576;2023-03-18T12:11:10;13.20;;;10.02;;
56114;SDS011;41988;53.020;6.576;2023-03-18T12:14:12;14.05;;;10.18;;
56114;SDS011;41988;53.020;6.576;2023-03-18T12:17:16;15.85;;;10.05;;
56114;SDS011;41988;53.020;6.576;2023-03-18T12:23:02;12.68;;;8.98;;
56114;SDS011;41988;53.020;6.576;2023-03-18T12:28:50;9.10;;;7.90;;
56114;SDS011;41988;53.020;6.576;2023-03-18T12:47:08;11.03;;;7.57;;
56114;SDS011;41988;53.020;6.576;2023-03-18T12:53:05;9.52;;;5.10;;
56114;SDS011;41988;53.020;6.576;2023-03-18T12:56:10;8.93;;;5.43;;
56114;SDS011;41988;53.020;6.576;2023-03-18T12:59:05;9.75;;;6.55;;
56114;SDS011;41988;53.020;6.576;2023-03-18T13:02:05;7.03;;;4.93;;
56114;SDS011;41988;53.020;6.576;2023-03-18T13:04:58;8.43;;;4.47;;
56114;SDS011;41988;53.020;6.576;2023-03-18T13:07:53;7.45;;;4.55;;
56114;SDS011;41988;53.020;6.576;2023-03-18T13:11:07;7.13;;;4.13;;
56114;SDS011;41988;53.020;6.576;2023-03-18T13:17:30;6.05;;;4.60;;
56114;SDS011;41988;53.020;6.576;2023-03-18T13:36:12;6.97;;;4.10;;
56114;SDS011;41988;53.020;6.576;2023-03-18T13:45:22;7.13;;;4.22;;
56114;SDS011;41988;53.020;6.576;2023-03-18T13:48:22;9.48;;;4.82;;
56114;SDS011;41988;53.020;6.576;2023-03-18T13:51:19;7.25;;;4.25;;
56114;SDS011;41988;53.020;6.576;2023-03-18T13:54:22;5.70;;;4.38;;
56114;SDS011;41988;53.020;6.576;2023-03-18T14:03:19;8.02;;;4.68;;
56114;SDS011;41988;53.020;6.576;2023-03-18T14:08:54;7.88;;;5.18;;
56114;SDS011;41988;53.020;6.576;2023-03-18T14:11:43;7.00;;;4.97;;
56114;SDS011;41988;53.020;6.576;2023-03-18T14:20:22;7.13;;;5.78;;
56114;SDS011;41988;53.020;6.576;2023-03-18T14:23:28;9.82;;;6.30;;
56114;SDS011;41988;53.020;6.576;2023-03-18T14:31:58;10.75;;;6.97;;
56114;SDS011;41988;53.020;6.576;2023-03-18T14:34:54;10.15;;;6.38;;
56114;SDS011;41988;53.020;6.576;2023-03-18T14:40:50;8.90;;;6.88;;
56114;SDS011;41988;53.020;6.576;2023-03-18T14:43:38;10.38;;;6.30;;
56114;SDS011;41988;53.020;6.576;2023-03-18T14:46:44;12.07;;;6.15;;
56114;SDS011;41988;53.020;6.576;2023-03-18T14:52:27;8.77;;;6.75;;
56114;SDS011;41988;53.020;6.576;2023-03-18T14:55:17;10.38;;;6.35;;
56114;SDS011;41988;53.020;6.576;2023-03-18T14:58:05;13.30;;;6.28;;
56114;SDS011;41988;53.020;6.576;2023-03-18T15:00:51;11.75;;;6.45;;
56114;SDS011;41988;53.020;6.576;2023-03-18T15:03:42;8.63;;;5.88;;
56114;SDS011;41988;53.020;6.576;2023-03-18T15:06:28;13.45;;;6.18;;
56114;SDS011;41988;53.020;6.576;2023-03-18T15:09:31;8.98;;;5.78;;
56114;SDS011;41988;53.020;6.576;2023-03-18T15:12:21;9.75;;;6.75;;
56114;SDS011;41988;53.020;6.576;2023-03-18T15:15:11;9.15;;;6.68;;
56114;SDS011;41988;53.020;6.576;2023-03-18T15:17:59;10.23;;;6.57;;
56114;SDS011;41988;53.020;6.576;2023-03-18T15:21:13;11.00;;;6.43;;
56114;SDS011;41988;53.020;6.576;2023-03-18T15:24:04;9.23;;;7.00;;
56114;SDS011;41988;53.020;6.576;2023-03-18T15:26:57;12.05;;;7.75;;
56114;SDS011;41988;53.020;6.576;2023-03-18T15:29:52;12.68;;;8.15;;
56114;SDS011;41988;53.020;6.576;2023-03-18T15:32:46;11.32;;;7.38;;
56114;SDS011;41988;53.020;6.576;2023-03-18T15:35:36;10.40;;;6.80;;
56114;SDS011;41988;53.020;6.576;2023-03-18T15:38:27;10.65;;;6.03;;
56114;SDS011;41988;53.020;6.576;2023-03-18T15:41:14;10.73;;;7.18;;
56114;SDS011;41988;53.020;6.576;2023-03-18T15:44:00;9.95;;;8.23;;
56114;SDS011;41988;53.020;6.576;2023-03-18T15:47:08;10.63;;;7.63;;
56114;SDS011;41988;53.020;6.576;2023-03-18T15:49:57;12.88;;;6.85;;
56114;SDS011;41988;53.020;6.576;2023-03-18T15:52:44;9.73;;;6.63;;
56114;SDS011;41988;53.020;6.576;2023-03-18T15:55:33;7.95;;;4.85;;
56114;SDS011;41988;53.020;6.576;2023-03-18T15:58:34;7.10;;;4.38;;
56114;SDS011;41988;53.020;6.576;2023-03-18T16:01:19;8.20;;;5.28;;
56114;SDS011;41988;53.020;6.576;2023-03-18T16:04:05;10.65;;;5.65;;
56114;SDS011;41988;53.020;6.576;2023-03-18T16:06:53;6.50;;;3.65;;
56114;SDS011;41988;53.020;6.576;2023-03-18T16:09:37;4.85;;;2.95;;
56114;SDS011;41988;53.020;6.576;2023-03-18T16:12:22;6.35;;;2.97;;
56114;SDS011;41988;53.020;6.576;2023-03-18T16:15:15;6.93;;;3.15;;
56114;SDS011;41988;53.020;6.576;2023-03-18T16:18:04;8.20;;;4.18;;
56114;SDS011;41988;53.020;6.576;2023-03-18T16:20:49;5.85;;;3.28;;
56114;SDS011;41988;53.020;6.576;2023-03-18T16:23:33;6.90;;;3.38;;
56114;SDS011;41988;53.020;6.576;2023-03-18T16:26:18;9.23;;;3.92;;
56114;SDS011;41988;53.020;6.576;2023-03-18T16:29:10;9.85;;;4.90;;
56114;SDS011;41988;53.020;6.576;2023-03-18T16:31:58;10.73;;;6.32;;
56114;SDS011;41988;53.020;6.576;2023-03-18T16:34:43;13.10;;;6.88;;
56114;SDS011;41988;53.020;6.576;2023-03-18T16:37:28;11.05;;;6.45;;
56114;SDS011;41988;53.020;6.576;2023-03-18T16:40:14;13.25;;;7.90;;
56114;SDS011;41988;53.020;6.576;2023-03-18T16:43:09;12.95;;;6.47;;
56114;SDS011;41988;53.020;6.576;2023-03-18T16:46:11;9.02;;;5.75;;
56114;SDS011;41988;53.020;6.576;2023-03-18T16:48:57;6.72;;;5.32;;
56114;SDS011;41988;53.020;6.576;2023-03-18T16:51:42;11.40;;;5.50;;
56114;SDS011;41988;53.020;6.576;2023-03-18T16:54:28;12.18;;;5.03;;
56114;SDS011;41988;53.020;6.576;2023-03-18T16:57:16;11.70;;;5.38;;
56114;SDS011;41988;53.020;6.576;2023-03-18T17:00:02;10.82;;;5.07;;
56114;SDS011;41988;53.020;6.576;2023-03-18T17:02:51;5.82;;;4.20;;
56114;SDS011;41988;53.020;6.576;2023-03-18T17:05:36;7.30;;;4.70;;
56114;SDS011;41988;53.020;6.576;2023-03-18T17:08:21;9.93;;;6.35;;
56114;SDS011;41988;53.020;6.576;2023-03-18T17:11:06;7.13;;;4.28;;
56114;SDS011;41988;53.020;6.576;2023-03-18T17:13:51;7.13;;;4.43;;
56114;SDS011;41988;53.020;6.576;2023-03-18T17:16:36;6.38;;;3.70;;
56114;SDS011;41988;53.020;6.576;2023-03-18T17:19:21;6.80;;;3.13;;
56114;SDS011;41988;53.020;6.576;2023-03-18T17:22:27;5.72;;;3.30;;
56114;SDS011;41988;53.020;6.576;2023-03-18T17:25:13;4.63;;;2.88;;
56114;SDS011;41988;53.020;6.576;2023-03-18T17:28:00;3.83;;;2.45;;
56114;SDS011;41988;53.020;6.576;2023-03-18T17:30:47;4.90;;;2.67;;
56114;SDS011;41988;53.020;6.576;2023-03-18T17:33:34;3.67;;;2.53;;
56114;SDS011;41988;53.020;6.576;2023-03-18T17:36:20;6.43;;;2.92;;
56114;SDS011;41988;53.020;6.576;2023-03-18T17:39:04;4.25;;;2.95;;
56114;SDS011;41988;53.020;6.576;2023-03-18T17:41:49;5.18;;;2.90;;
56114;SDS011;41988;53.020;6.576;2023-03-18T17:44:33;5.47;;;3.03;;
56114;SDS011;41988;53.020;6.576;2023-03-18T17:47:18;5.18;;;2.63;;
56114;SDS011;41988;53.020;6.576;2023-03-18T17:50:03;6.03;;;3.20;;
56114;SDS011;41988;53.020;6.576;2023-03-18T17:52:49;5.95;;;3.15;;
56114;SDS011;41988;53.020;6.576;2023-03-18T17:55:34;6.93;;;3.75;;
56114;SDS011;41988;53.020;6.576;2023-03-18T17:58:21;5.15;;;3.80;;
56114;SDS011;41988;53.020;6.576;2023-03-18T18:01:13;8.10;;;4.68;;
56114;SDS011;41988;53.020;6.576;2023-03-18T18:04:00;7.67;;;3.57;;
56114;SDS011;41988;53.020;6.576;2023-03-18T18:06:45;9.45;;;4.50;;
56114;SDS011;41988;53.020;6.576;2023-03-18T18:09:30;9.80;;;5.95;;
56114;SDS011;41988;53.020;6.576;2023-03-18T18:12:19;12.85;;;7.13;;
56114;SDS011;41988;53.020;6.576;2023-03-18T18:15:15;9.63;;;5.43;;
56114;SDS011;41988;53.020;6.576;2023-03-18T18:18:04;9.40;;;6.50;;
56114;SDS011;41988;53.020;6.576;2023-03-18T18:21:15;8.77;;;5.10;;
56114;SDS011;41988;53.020;6.576;2023-03-18T18:24:28;9.52;;;6.30;;
56114;SDS011;41988;53.020;6.576;2023-03-18T18:27:12;16.98;;;11.07;;
56114;SDS011;41988;53.020;6.576;2023-03-18T18:29:57;14.48;;;9.10;;